Time;durP1;ratioP1;P1;durP2;ratioP2;P2;SDS_P1;SDS_P2;PMS_P1;PMS_P2;Temp;Humidity;BMP_temperature;BMP_pressure;BME280_temperature;BME280_humidity;BME280_pressure;Samples;Min_cycle;Max_cycle;Signal;HPM_P1;HPM_P2
2024/03/20 00:04:52;;;;;;;1999.90;999.90;;;;;;;9.09;100.00;101798.22;10457706;28;20410;-69
2024/03/20 00:09:54;;;;;;;1999.90;999.90;;;;;;;9.12;100.00;101797.22;10441613;28;20087;-70
2024/03/20 00:14:56;;;;;;;1999.90;999.90;;;;;;;8.93;100.00;101802.25;10441253;28;20490;-70
2024/03/20 00:19:58;;;;;;;1999.90;999.90;;;;;;;9.01;100.00;101797.63;10440812;28;20489;-70
2024/03/20 00:24:59;;;;;;;1999.90;999.90;;;;;;;8.89;100.00;101793.66;10440495;28;20048;-70
2024/03/20 00:30:01;;;;;;;1999.90;999.90;;;;;;;8.96;100.00;101790.81;10440599;28;20464;-70
2024/03/20 00:35:03;;;;;;;1999.90;999.90;;;;;;;8.91;100.00;101799.69;10457455;28;20051;-70
2024/03/20 00:40:05;;;;;;;1999.90;999.90;;;;;;;8.96;100.00;101802.16;10440526;28;20049;-70
2024/03/20 00:45:07;;;;;;;1999.90;999.90;;;;;;;8.96;100.00;101793.44;10439969;28;20056;-70
2024/03/20 00:50:08;;;;;;;1999.90;999.90;;;;;;;8.97;100.00;101793.38;10456220;28;20053;-70
2024/03/20 00:55:10;;;;;;;1999.90;999.90;;;;;;;9.18;100.00;101788.31;10456283;28;20064;-70
2024/03/20 01:00:12;;;;;;;1999.90;999.90;;;;;;;9.19;100.00;101782.19;10439583;28;20049;-70
2024/03/20 01:05:13;;;;;;;1999.90;999.90;;;;;;;9.19;100.00;101782.19;10455721;28;20045;-70
2024/03/20 01:10:15;;;;;;;1999.90;999.90;;;;;;;9.28;100.00;101780.09;10439633;28;20056;-70
2024/03/20 01:15:16;;;;;;;1999.90;999.90;;;;;;;9.25;100.00;101774.97;10439616;28;20072;-69
2024/03/20 01:20:18;;;;;;;1999.90;999.90;;;;;;;9.02;100.00;101788.84;10438978;28;20056;-69
2024/03/20 01:25:19;;;;;;;1999.90;999.90;;;;;;;9.00;100.00;101782.00;10438420;28;20049;-70
2024/03/20 01:30:21;;;;;;;1999.90;999.90;;;;;;;9.09;100.00;101787.75;10455049;28;20053;-70
2024/03/20 01:35:22;;;;;;;1999.90;999.90;;;;;;;9.11;100.00;101780.72;10437505;28;20567;-70
2024/03/20 01:40:24;;;;;;;1999.90;999.90;;;;;;;8.97;100.00;101776.88;10438462;28;20052;-70
2024/03/20 01:45:25;;;;;;;1999.90;999.90;;;;;;;8.86;100.00;101785.06;10437882;28;20046;-70
2024/03/20 01:50:26;;;;;;;1999.90;999.90;;;;;;;8.92;100.00;101779.63;10454567;28;20060;-70
2024/03/20 01:55:28;;;;;;;1999.90;999.90;;;;;;;8.78;100.00;101781.88;10437678;28;20057;-70
2024/03/20 02:00:30;;;;;;;1999.90;999.90;;;;;;;8.53;100.00;101777.47;10421109;28;20111;-70
2024/03/20 02:05:31;;;;;;;1999.90;999.90;;;;;;;8.61;100.00;101780.69;10437541;28;20037;-70
2024/03/20 02:10:32;;;;;;;1999.90;999.90;;;;;;;8.61;100.00;101778.09;10437778;28;20049;-70
2024/03/20 02:15:34;;;;;;;1999.90;999.90;;;;;;;8.62;100.00;101769.31;10436777;28;20057;-70
2024/03/20 02:20:36;;;;;;;1999.90;999.90;;;;;;;8.68;100.00;101766.53;10453951;28;20048;-70
2024/03/20 02:25:37;;;;;;;1999.90;999.90;;;;;;;8.50;100.00;101772.34;10437068;28;20524;-70
2024/03/20 02:30:39;;;;;;;1999.90;999.90;;;;;;;8.57;100.00;101773.84;10437566;28;20045;-70
2024/03/20 02:35:41;;;;;;;1999.90;999.90;;;;;;;8.49;100.00;101771.50;10437125;28;20049;-70
2024/03/20 02:40:42;;;;;;;1999.90;999.90;;;;;;;8.62;100.00;101764.09;10436659;28;20064;-69
2024/03/20 02:45:43;;;;;;;1999.90;999.90;;;;;;;8.49;100.00;101761.06;10453147;28;20052;-70
2024/03/20 02:50:45;;;;;;;1999.90;999.90;;;;;;;8.29;100.00;101753.88;10443794;28;20501;-70
2024/03/20 02:55:47;;;;;;;1999.90;999.90;;;;;;;8.45;100.00;101753.38;10444282;28;20057;-69
2024/03/20 03:00:48;;;;;;;1999.90;999.90;;;;;;;8.31;100.00;101762.50;10443656;28;20490;-70
2024/03/20 03:05:50;;;;;;;1999.90;999.90;;;;;;;8.13;100.00;101768.28;10443694;28;20422;-69
2024/03/20 03:10:51;;;;;;;1999.90;999.90;;;;;;;8.43;100.00;101778.69;10485161;23;20053;-70
2024/03/20 03:15:53;;;;;;;1999.90;999.90;;;;;;;8.62;100.00;101766.72;10484864;28;20404;-70
2024/03/20 03:20:54;;;;;;;1999.90;999.90;;;;;;;8.54;100.00;101776.59;10501115;28;20056;-70
2024/03/20 03:25:56;;;;;;;1999.90;999.90;;;;;;;8.72;100.00;101772.50;10484426;28;20048;-70
2024/03/20 03:31:00;;;;;;;1999.90;999.90;;;;;;;8.56;100.00;101777.38;10483949;28;20558;-70
2024/03/20 03:36:06;;;;;;;1999.90;999.90;;;;;;;8.67;100.00;101777.84;10501371;28;20086;-70
2024/03/20 03:41:08;;;;;;;1999.90;999.90;;;;;;;8.81;100.00;101781.75;10467785;28;20053;-70
2024/03/20 03:46:09;;;;;;;1999.90;999.90;;;;;;;8.78;100.00;101771.44;10483482;28;20056;-69
2024/03/20 03:51:11;;;;;;;1999.90;999.90;;;;;;;8.97;100.00;101761.19;10483268;28;20053;-70
2024/03/20 03:56:12;;;;;;;1999.90;999.90;;;;;;;8.68;100.00;101771.75;10482628;28;20049;-70
2024/03/20 04:01:14;;;;;;;1999.90;999.90;;;;;;;8.88;100.00;101762.38;10475019;28;20390;-70
2024/03/20 04:06:15;;;;;;;1999.90;999.90;;;;;;;8.72;100.00;101773.38;10499508;28;20045;-70
2024/03/20 04:11:22;;;;;;;1999.90;999.90;;;;;;;8.50;100.00;101785.41;10499050;28;20515;-70
2024/03/20 04:16:24;;;;;;;1999.90;999.90;;;;;;;8.82;100.00;101779.09;10469725;28;20040;-70
2024/03/20 04:21:25;;;;;;;1999.90;999.90;;;;;;;8.58;100.00;101775.56;10482692;28;20044;-70
2024/03/20 04:26:27;;;;;;;1999.90;999.90;;;;;;;8.67;100.00;101780.47;10498966;28;20046;-70
2024/03/20 04:31:28;;;;;;;1999.90;999.90;;;;;;;8.71;100.00;101771.66;10482201;28;20052;-70
2024/03/20 04:36:29;;;;;;;1999.90;999.90;;;;;;;8.68;100.00;101776.13;10465085;28;20045;-70
2024/03/20 04:41:31;;;;;;;1999.90;999.90;;;;;;;8.44;100.00;101778.66;10481979;28;20048;-70
2024/03/20 04:46:33;;;;;;;1999.90;999.90;;;;;;;8.52;100.00;101789.69;10481303;28;20049;-69
2024/03/20 04:51:34;;;;;;;1999.90;999.90;;;;;;;8.44;100.00;101785.59;10481440;28;20103;-69
2024/03/20 04:56:35;;;;;;;1999.90;999.90;;;;;;;8.49;100.00;101787.19;10464910;28;20051;-69
2024/03/20 05:01:37;;;;;;;1999.90;999.90;;;;;;;8.39;100.00;101780.53;10481179;28;20060;-70
2024/03/20 05:06:38;;;;;;;1999.90;999.90;;;;;;;8.37;100.00;101784.91;10481323;28;20056;-69
2024/03/20 05:11:40;;;;;;;1999.90;999.90;;;;;;;8.43;100.00;101778.69;10521617;28;20055;-69
2024/03/20 05:16:41;;;;;;;1999.90;999.90;;;;;;;8.47;100.00;101781.16;10505139;28;20492;-70
2024/03/20 05:21:43;;;;;;;1999.90;999.90;;;;;;;8.59;100.00;101777.28;10521927;28;20052;-69
2024/03/20 05:26:45;;;;;;;1999.90;999.90;;;;;;;8.49;100.00;101783.69;10521548;28;20059;-70
2024/03/20 05:31:47;;;;;;;1999.90;999.90;;;;;;;8.66;100.00;101785.78;10505027;28;20051;-70
2024/03/20 05:36:48;;;;;;;1999.90;999.90;;;;;;;8.70;100.00;101784.75;10521505;28;20052;-70
2024/03/20 05:41:51;;;;;;;1999.90;999.90;;;;;;;8.68;100.00;101782.19;10504698;28;20071;-69
2024/03/20 05:46:52;;;;;;;1999.90;999.90;;;;;;;8.76;100.00;101783.69;10503781;28;20048;-69
2024/03/20 05:51:53;;;;;;;1999.90;999.90;;;;;;;8.76;100.00;101783.69;10487900;28;20044;-69
2024/03/20 05:56:55;;;;;;;1999.90;999.90;;;;;;;8.78;100.00;101782.72;10504371;28;20044;-69
2024/03/20 06:01:56;;;;;;;1999.90;999.90;;;;;;;8.73;100.00;101784.66;10520900;28;20059;-69
2024/03/20 06:06:58;;;;;;;1999.90;999.90;;;;;;;8.70;100.00;101797.81;10503462;28;20058;-70
2024/03/20 06:11:59;;;;;;;1999.90;999.90;;;;;;;8.78;100.00;101792.34;10504036;28;20048;-69
2024/03/20 06:17:01;;;;;;;1999.90;999.90;;;;;;;9.03;100.00;101794.97;10520714;28;20105;-69
2024/03/20 06:22:02;;;;;;;1999.90;999.90;;;;;;;9.03;100.00;101795.78;10523787;28;20044;-69
2024/03/20 06:27:05;;;;;;;1999.90;999.90;;;;;;;9.22;100.00;101803.84;10528511;28;20055;-70
2024/03/20 06:32:07;;;;;;;1999.90;999.90;;;;;;;9.32;100.00;101803.53;10528364;28;20075;-70
2024/03/20 06:37:10;;;;;;;1999.90;999.90;;;;;;;9.32;100.00;101804.34;10528750;28;20284;-70
2024/03/20 06:42:20;;;;;;;1999.90;999.90;;;;;;;9.55;100.00;101803.53;10527605;28;20504;-69
2024/03/20 06:47:24;;;;;;;1999.90;999.90;;;;;;;9.48;100.00;101807.25;10511930;28;20048;-69
2024/03/20 06:52:25;;;;;;;1999.90;999.90;;;;;;;9.62;100.00;101805.00;10511231;28;20553;-69
2024/03/20 06:57:27;;;;;;;1999.90;999.90;;;;;;;9.64;100.00;101810.16;10511094;28;20063;-69
2024/03/20 07:02:28;;;;;;;1999.90;999.90;;;;;;;9.82;100.00;101824.31;10510645;28;20114;-69
2024/03/20 07:07:29;;;;;;;1999.90;999.90;;;;;;;9.82;100.00;101826.94;10527167;28;20059;-69
2024/03/20 07:12:31;;;;;;;1999.90;999.90;;;;;;;9.88;100.00;101829.31;10510325;28;20401;-69
2024/03/20 07:17:33;;;;;;;1999.90;999.90;;;;;;;10.09;100.00;101832.88;10527384;28;20052;-69
2024/03/20 07:22:35;;;;;;;1999.90;999.90;;;;;;;10.04;100.00;101834.81;10526543;28;20105;-70
2024/03/20 07:27:37;;;;;;;1999.90;999.90;;;;;;;10.27;100.00;101838.28;10525885;28;20416;-69
2024/03/20 07:32:38;;;;;;;1999.90;999.90;;;;;;;10.53;100.00;101842.53;10509103;28;20040;-69
2024/03/20 07:37:40;;;;;;;1999.90;999.90;;;;;;;10.89;100.00;101829.69;10509236;28;20397;-69
2024/03/20 07:42:42;;;;;;;1999.90;999.90;;;;;;;11.27;100.00;101828.94;10508804;28;20503;-70
2024/03/20 07:47:44;;;;;;;1999.90;999.90;;;;;;;11.63;100.00;101826.47;10525827;28;20101;-70
2024/03/20 07:52:47;;;;;;;1999.90;999.90;;;;;;;11.46;100.00;101835.06;10492533;28;20055;-70
2024/03/20 07:57:48;;;;;;;1999.90;999.90;;;;;;;11.58;100.00;101836.28;10508300;28;20562;-69
2024/03/20 08:02:51;;;;;;;1999.90;999.90;;;;;;;12.04;100.00;101841.25;10525450;28;20085;-69
2024/03/20 08:07:53;;;;;;;1999.90;999.90;;;;;;;12.31;100.00;101843.50;10524656;28;20056;-70
2024/03/20 08:12:54;;;;;;;1999.90;999.90;;;;;;;12.68;100.00;101844.31;10524966;28;20060;-70
2024/03/20 08:17:55;;;;;;;1999.90;999.90;;;;;;;12.72;99.72;101845.84;10508063;28;20052;-70
2024/03/20 08:22:57;;;;;;;1999.90;999.90;;;;;;;12.50;97.95;101846.91;10524371;28;20044;-70
2024/03/20 08:27:58;;;;;;;1999.90;999.90;;;;;;;12.38;96.18;101843.09;10523504;28;20051;-70
2024/03/20 08:33:00;;;;;;;1999.90;999.90;;;;;;;13.81;96.07;101842.00;10507293;28;20081;-70
2024/03/20 08:38:01;;;;;;;1999.90;999.90;;;;;;;14.06;92.63;101839.72;10507083;28;20044;-70
2024/03/20 08:43:04;;;;;;;1999.90;999.90;;;;;;;14.49;91.88;101837.31;10506293;28;20055;-70
2024/03/20 08:48:06;;;;;;;1999.90;999.90;;;;;;;14.98;89.84;101838.91;10521586;28;20047;-70
2024/03/20 08:53:07;;;;;;;1999.90;999.90;;;;;;;15.02;89.25;101832.47;10523408;28;20055;-70
2024/03/20 08:58:09;;;;;;;1999.90;999.90;;;;;;;14.95;89.31;101835.59;10489953;28;20060;-70
2024/03/20 09:03:11;;;;;;;1999.90;999.90;;;;;;;15.17;87.12;101841.28;10505906;28;20048;-70
2024/03/20 09:08:12;;;;;;;1999.90;999.90;;;;;;;16.43;88.38;101845.75;10521884;28;20535;-70
2024/03/20 09:13:14;;;;;;;1999.90;999.90;;;;;;;17.13;82.24;101844.66;10505496;28;20423;-70
2024/03/20 09:18:15;;;;;;;1999.90;999.90;;;;;;;17.39;79.49;101839.34;10522345;28;20052;-71
2024/03/20 09:23:17;;;;;;;1999.90;999.90;;;;;;;17.99;79.57;101830.69;10505236;28;20059;-71
2024/03/20 09:28:18;;;;;;;1999.90;999.90;;;;;;;17.46;74.33;101830.84;10505783;28;20063;-71
2024/03/20 09:33:20;;;;;;;1999.90;999.90;;;;;;;17.18;76.58;101828.44;10504950;28;20047;-71
2024/03/20 09:38:21;;;;;;;1999.90;999.90;;;;;;;17.64;73.34;101826.06;10505057;28;20054;-71
2024/03/20 09:43:23;;;;;;;1999.90;999.90;;;;;;;18.02;73.42;101819.00;10505057;28;20044;-71
2024/03/20 09:48:24;;;;;;;1999.90;999.90;;;;;;;17.15;75.33;101818.94;10487617;28;20460;-71
2024/03/20 09:53:26;;;;;;;1999.90;999.90;;;;;;;17.69;74.61;101812.50;10490517;28;20070;-71
2024/03/20 09:58:27;;;;;;;1999.90;999.90;;;;;;;19.82;69.50;101805.31;10503694;28;20484;-71
2024/03/20 10:03:30;;;;;;;1999.90;999.90;;;;;;;19.99;69.49;101809.25;10520472;28;20040;-71
2024/03/20 10:08:33;;;;;;;1999.90;999.90;;;;;;;19.90;68.13;101804.66;10503328;28;20060;-71
2024/03/20 10:13:35;;;;;;;1999.90;999.90;;;;;;;19.82;68.20;101801.78;10520677;28;20052;-72
2024/03/20 10:18:36;;;;;;;1999.90;999.90;;;;;;;19.32;67.85;101796.88;10503727;28;20416;-72
2024/03/20 10:23:45;;;;;;;1999.90;999.90;;;;;;;19.54;67.62;101784.56;10503062;28;20048;-72
2024/03/20 10:28:49;;;;;;;1999.90;999.90;;;;;;;19.94;65.62;101784.84;10520668;28;20052;-72
2024/03/20 10:33:51;;;;;;;1999.90;999.90;;;;;;;20.25;63.87;101786.81;10503018;28;20417;-72
2024/03/20 10:38:52;;;;;;;1999.90;999.90;;;;;;;19.81;65.22;101781.50;10486965;28;20047;-72
2024/03/20 10:43:53;;;;;;;1999.90;999.90;;;;;;;19.96;64.56;101784.75;10520136;28;20052;-72
2024/03/20 10:48:55;;;;;;;1999.90;999.90;;;;;;;20.25;64.82;101777.00;10503526;28;20044;-72
2024/03/20 10:53:57;;;;;;;1999.90;999.90;;;;;;;20.09;65.21;101781.91;10503362;28;20059;-72
2024/03/20 10:59:02;;;;;;;1999.90;999.90;;;;;;;21.82;60.46;101766.19;10503430;28;20093;-73
2024/03/20 11:04:03;;;;;;;1999.90;999.90;;;;;;;21.44;59.93;101778.41;10519625;28;20040;-73
2024/03/20 11:09:07;;;;;;;1999.90;999.90;;;;;;;20.36;63.23;101782.28;10505710;28;20055;-73
2024/03/20 11:14:11;;;;;;;1999.90;999.90;;;;;;;21.98;57.73;101776.31;10527412;28;20040;-73
2024/03/20 11:19:14;;;;;;;1999.90;999.90;;;;;;;23.22;53.77;101775.56;10510473;28;20056;-73
2024/03/20 11:24:15;;;;;;;1999.90;999.90;;;;;;;23.27;57.14;101776.84;10526533;28;20040;-73
2024/03/20 11:29:17;;;;;;;1999.90;999.90;;;;;;;23.06;56.05;101771.72;10509516;28;20485;-73
2024/03/20 11:34:18;;;;;;;1999.90;999.90;;;;;;;22.08;53.84;101777.16;10509441;28;20048;-73
2024/03/20 11:39:19;;;;;;;1999.90;999.90;;;;;;;22.89;53.09;101780.47;10509305;28;20113;-72
2024/03/20 11:44:21;;;;;;;1999.90;999.90;;;;;;;24.84;54.52;101781.84;10526191;28;20066;-72
2024/03/20 11:49:24;;;;;;;1999.90;999.90;;;;;;;25.59;53.21;101781.22;10492956;28;20061;-72
2024/03/20 11:54:26;;;;;;;1999.90;999.90;;;;;;;24.93;54.02;101785.41;10492313;28;20048;-72
2024/03/20 11:59:28;;;;;;;1999.90;999.90;;;;;;;24.78;53.58;101772.63;10509380;28;20101;-72
2024/03/20 12:04:34;;;;;;;1999.90;999.90;;;;;;;24.68;52.61;101769.22;10524895;28;20052;-72
2024/03/20 12:09:36;;;;;;;1999.90;999.90;;;;;;;23.70;54.11;101767.31;10507864;28;20052;-72
2024/03/20 12:14:37;;;;;;;1999.90;999.90;;;;;;;23.35;53.08;101763.59;10524263;28;20416;-73
2024/03/20 12:19:38;;;;;;;1999.90;999.90;;;;;;;24.01;52.86;101758.13;10507476;28;20203;-73
2024/03/20 12:24:40;;;;;;;1999.90;999.90;;;;;;;22.64;53.29;101764.06;10475081;22;20438;-72
2024/03/20 12:29:43;;;;;;;1999.90;999.90;;;;;;;24.24;52.48;101756.66;10416239;28;20134;-71
2024/03/20 12:34:44;;;;;;;1999.90;999.90;;;;;;;23.21;51.81;101753.38;10415671;28;20045;-71
2024/03/20 12:39:45;;;;;;;1999.90;999.90;;;;;;;24.63;51.35;101748.25;10399659;28;20473;-71
2024/03/20 12:44:47;;;;;;;1999.90;999.90;;;;;;;23.47;55.65;101750.00;10415243;28;20049;-71
2024/03/20 12:49:49;;;;;;;1999.90;999.90;;;;;;;25.36;50.74;101741.59;10414494;28;20103;-72
2024/03/20 12:54:51;;;;;;;1999.90;999.90;;;;;;;25.68;49.28;101731.13;10427541;28;20489;-71
2024/03/20 12:59:53;;;;;;;1999.90;999.90;;;;;;;24.65;49.36;101734.72;10413863;28;20429;-71
2024/03/20 13:04:54;;;;;;;1999.90;999.90;;;;;;;24.49;50.13;101732.72;10414072;28;20053;-72
2024/03/20 13:09:59;;;;;;;1999.90;999.90;;;;;;;23.24;55.30;101726.38;10396225;28;20587;-71
2024/03/20 13:15:03;;;;;;;1999.90;999.90;;;;;;;23.85;50.49;101727.53;10413928;28;20516;-72
2024/03/20 13:20:10;;;;;;;1999.90;999.90;;;;;;;24.07;49.97;101728.06;10414009;28;20140;-72
2024/03/20 13:25:16;;;;;;;1999.90;999.90;;;;;;;22.61;54.31;101716.31;10414704;28;20138;-72
2024/03/20 13:30:18;;;;;;;1999.90;999.90;;;;;;;22.93;53.87;101713.28;10413061;28;20064;-71
2024/03/20 13:35:19;;;;;;;1999.90;999.90;;;;;;;22.81;53.94;101717.97;10413459;28;20041;-72
2024/03/20 13:40:32;;;;;;;1999.90;999.90;;;;;;;22.10;53.41;101717.50;10411277;28;20563;-72
2024/03/20 13:45:55;;;;;;;1999.90;999.90;;;;;;;23.00;52.83;101708.19;10413977;28;20072;-72
2024/03/20 13:50:56;;;;;;;1999.90;999.90;;;;;;;22.20;53.87;101713.00;10412936;28;20378;-71
2024/03/20 13:55:58;;;;;;;1999.90;999.90;;;;;;;21.85;53.76;101709.09;10413796;28;20056;-72
2024/03/20 14:00:59;;;;;;;1999.90;999.90;;;;;;;21.85;53.59;101709.09;10430556;28;20057;-72
2024/03/20 14:06:01;;;;;;;1999.90;999.90;;;;;;;22.37;51.40;101704.28;10397834;28;20045;-72
2024/03/20 14:11:02;;;;;;;1999.90;999.90;;;;;;;25.78;49.86;101691.56;10433010;28;20053;-72
2024/03/20 14:16:05;;;;;;;1999.90;999.90;;;;;;;23.65;51.54;101696.56;10433152;28;20049;-72
2024/03/20 14:21:16;;;;;;;1999.90;999.90;;;;;;;23.86;52.56;101693.63;10416222;28;20053;-71
2024/03/20 14:26:22;;;;;;;1999.90;999.90;;;;;;;24.29;52.71;101697.31;10417156;28;20092;-72
2024/03/20 14:31:23;;;;;;;1999.90;999.90;;;;;;;24.58;49.12;101690.81;10413982;28;20045;-72
2024/03/20 14:36:26;;;;;;;1999.90;999.90;;;;;;;22.82;53.52;101684.09;10413532;28;20041;-72
2024/03/20 14:41:27;;;;;;;1999.90;999.90;;;;;;;21.92;55.39;101696.88;10415755;28;20057;-72
2024/03/20 14:46:29;;;;;;;1999.90;999.90;;;;;;;21.57;54.94;101689.41;10422218;28;20490;-72
2024/03/20 14:51:32;;;;;;;1999.90;999.90;;;;;;;22.22;56.36;101693.19;10402864;28;20413;-72
2024/03/20 14:56:35;;;;;;;1999.90;999.90;;;;;;;22.21;56.33;101686.19;10436868;28;20409;-71
2024/03/20 15:01:37;;;;;;;1999.90;999.90;;;;;;;21.43;57.13;101686.13;10403852;28;20052;-72
2024/03/20 15:06:38;;;;;;;1999.90;999.90;;;;;;;21.07;58.47;101691.09;10420258;28;20056;-72
2024/03/20 15:11:40;;;;;;;1999.90;999.90;;;;;;;20.60;59.49;101688.91;10418875;28;20498;-72
2024/03/20 15:16:41;;;;;;;1999.90;999.90;;;;;;;20.85;57.56;101686.81;10418160;28;20057;-71
2024/03/20 15:21:42;;;;;;;1999.90;999.90;;;;;;;20.67;59.35;101686.59;10402138;28;20060;-71
2024/03/20 15:26:44;;;;;;;1999.90;999.90;;;;;;;21.02;59.15;101684.50;10405201;28;20063;-72
2024/03/20 15:31:47;;;;;;;1999.90;999.90;;;;;;;20.36;61.31;101693.69;10418691;28;20048;-72
2024/03/20 15:36:48;;;;;;;1999.90;999.90;;;;;;;20.26;60.43;101690.09;10433237;28;20052;-71
2024/03/20 15:41:50;;;;;;;1999.90;999.90;;;;;;;20.78;61.51;101688.34;10419472;28;20075;-71
2024/03/20 15:46:51;;;;;;;1999.90;999.90;;;;;;;20.34;61.18;101696.47;10438318;28;20049;-72
2024/03/20 15:51:53;;;;;;;1999.90;999.90;;;;;;;20.12;63.52;101692.09;10417703;28;20048;-71
2024/03/20 15:56:54;;;;;;;1999.90;999.90;;;;;;;20.32;62.71;101679.78;10415347;28;20041;-71
2024/03/20 16:01:56;;;;;;;1999.90;999.90;;;;;;;19.83;63.34;101690.06;10419551;28;20044;-72
2024/03/20 16:06:57;;;;;;;1999.90;999.90;;;;;;;20.23;63.70;101691.22;10417444;28;20041;-72
2024/03/20 16:11:59;;;;;;;1999.90;999.90;;;;;;;20.13;63.70;101695.63;10433838;28;20049;-70
2024/03/20 16:17:00;;;;;;;1999.90;999.90;;;;;;;19.89;63.35;101693.19;10416654;28;20049;-72
2024/03/20 16:22:02;;;;;;;1999.90;999.90;;;;;;;19.72;64.09;101700.72;10399347;28;20068;-71
2024/03/20 16:27:04;;;;;;;1999.90;999.90;;;;;;;20.01;63.14;101703.63;10432688;28;20045;-70
2024/03/20 16:32:06;;;;;;;1999.90;999.90;;;;;;;20.16;62.20;101708.66;10415611;28;20110;-70
2024/03/20 16:37:07;;;;;;;1999.90;999.90;;;;;;;20.65;60.38;101699.19;10414911;28;20391;-70
2024/03/20 16:42:09;;;;;;;1999.90;999.90;;;;;;;19.31;63.30;101702.25;10433319;28;20053;-70
2024/03/20 16:47:11;;;;;;;1999.90;999.90;;;;;;;18.83;65.94;101699.84;10415144;28;20049;-70
2024/03/20 16:52:12;;;;;;;1999.90;999.90;;;;;;;18.30;66.43;101697.69;10399191;28;20045;-70
2024/03/20 16:57:15;;;;;;;1999.90;999.90;;;;;;;18.19;69.19;101701.19;10420196;28;20045;-70
2024/03/20 17:02:18;;;;;;;1999.90;999.90;;;;;;;17.89;71.70;101691.91;10422956;28;20119;-70
2024/03/20 17:07:19;;;;;;;1999.90;999.90;;;;;;;17.47;71.73;101699.34;10433692;28;20052;-70
2024/03/20 17:12:21;;;;;;;1999.90;999.90;;;;;;;17.06;72.38;101697.84;10413985;28;20110;-70
2024/03/20 17:17:22;;;;;;;1999.90;999.90;;;;;;;16.85;74.44;101705.50;10415105;28;20057;-70
2024/03/20 17:22:24;;;;;;;1999.90;999.90;;;;;;;16.78;75.95;101701.53;10415539;28;20061;-70
2024/03/20 17:27:25;;;;;;;1999.90;999.90;;;;;;;16.56;77.54;101704.81;10396611;28;20122;-70
2024/03/20 17:32:27;;;;;;;1999.90;999.90;;;;;;;16.44;78.55;101704.72;10411927;28;20429;-70
2024/03/20 17:37:28;;;;;;;1999.90;999.90;;;;;;;16.08;79.30;101706.22;10396577;28;20052;-70
2024/03/20 17:42:29;;;;;;;1999.90;999.90;;;;;;;15.88;81.62;101706.72;10429799;28;20422;-70
2024/03/20 17:47:35;;;;;;;1999.90;999.90;;;;;;;15.50;82.97;101705.56;10411312;28;20052;-70
2024/03/20 17:52:38;;;;;;;1999.90;999.90;;;;;;;15.50;83.43;101707.34;10413803;28;20107;-73
2024/03/20 17:57:40;;;;;;;1999.90;999.90;;;;;;;15.25;85.03;101703.63;10413560;28;20045;-72
2024/03/20 18:02:42;;;;;;;1999.90;999.90;;;;;;;15.08;84.88;101706.47;10415699;28;20061;-72
2024/03/20 18:07:43;;;;;;;1999.90;999.90;;;;;;;14.84;85.24;101709.66;10413152;28;20041;-73
2024/03/20 18:12:45;;;;;;;1999.90;999.90;;;;;;;14.77;87.14;101708.34;10397982;28;20067;-71
2024/03/20 18:17:46;;;;;;;1999.90;999.90;;;;;;;14.89;86.91;101712.88;10431856;28;20049;-72
2024/03/20 18:22:48;;;;;;;1999.90;999.90;;;;;;;14.77;88.95;101718.91;10416298;22;20049;-73
2024/03/20 18:27:50;;;;;;;1999.90;999.90;;;;;;;14.63;88.88;101719.72;10347646;28;20049;-70
2024/03/20 18:32:52;;;;;;;1999.90;999.90;;;;;;;14.53;91.14;101723.81;10381630;28;20064;-72
2024/03/20 18:37:53;;;;;;;1999.90;999.90;;;;;;;14.39;92.59;101719.34;10344594;28;20094;-69
2024/03/20 18:42:55;;;;;;;1999.90;999.90;;;;;;;14.41;91.03;101728.88;10361394;28;20425;-72
2024/03/20 18:47:56;;;;;;;1999.90;999.90;;;;;;;14.15;95.03;101727.75;10362012;28;20115;-72
2024/03/20 18:52:58;;;;;;;1999.90;999.90;;;;;;;14.20;91.53;101725.69;10384630;28;20065;-69
2024/03/20 18:58:00;;;;;;;1999.90;999.90;;;;;;;13.94;92.42;101719.31;10349755;28;20064;-69
2024/03/20 19:03:02;;;;;;;1999.90;999.90;;;;;;;13.60;95.47;101737.00;10355925;28;20119;-69
2024/03/20 19:08:04;;;;;;;1999.90;999.90;;;;;;;13.54;95.26;101738.16;10357016;28;20518;-69
2024/03/20 19:13:08;;;;;;;1999.90;999.90;;;;;;;13.37;94.91;101743.50;10353013;28;20076;-70
2024/03/20 19:18:10;;;;;;;1999.90;999.90;;;;;;;13.18;99.54;101747.09;10359539;28;20049;-72
2024/03/20 19:23:11;;;;;;;1999.90;999.90;;;;;;;13.16;97.60;101746.31;10378812;28;20518;-69
2024/03/20 19:28:12;;;;;;;1999.90;999.90;;;;;;;12.97;99.22;101750.84;10355744;28;20076;-69
2024/03/20 19:33:14;;;;;;;1999.90;999.90;;;;;;;12.93;98.21;101758.03;10342209;28;20052;-69
2024/03/20 19:38:16;;;;;;;1999.90;999.90;;;;;;;12.74;98.92;101762.53;10331857;28;20411;-69
2024/03/20 19:43:22;;;;;;;1999.90;999.90;;;;;;;12.59;100.00;101772.91;10387443;28;20045;-69
2024/03/20 19:48:25;;;;;;;1999.90;999.90;;;;;;;12.53;100.00;101782.88;10362176;28;20107;-69
2024/03/20 19:53:27;;;;;;;1999.90;999.90;;;;;;;12.31;100.00;101775.22;10371125;28;20107;-69
2024/03/20 19:58:29;;;;;;;1999.90;999.90;;;;;;;12.51;100.00;101777.69;10357150;28;20111;-69
2024/03/20 20:03:32;;;;;;;1999.90;999.90;;;;;;;12.42;100.00;101778.16;10361628;28;20465;-69
2024/03/20 20:08:33;;;;;;;1999.90;999.90;;;;;;;12.11;100.00;101791.94;10352709;28;20115;-72
2024/03/20 20:13:35;;;;;;;1999.90;999.90;;;;;;;12.47;100.00;101798.94;10338079;28;20520;-71
2024/03/20 20:18:38;;;;;;;1999.90;999.90;;;;;;;12.38;100.00;101803.72;10361698;28;20053;-72
2024/03/20 20:23:39;;;;;;;1999.90;999.90;;;;;;;12.22;100.00;101793.13;10366632;28;20765;-71
2024/03/20 20:28:41;;;;;;;1999.90;999.90;;;;;;;12.38;100.00;101810.75;10334211;28;20046;-71
2024/03/20 20:33:43;;;;;;;1999.90;999.90;;;;;;;11.98;100.00;101815.28;10361099;28;20049;-71
2024/03/20 20:38:44;;;;;;;1999.90;999.90;;;;;;;12.22;100.00;101814.13;10353891;28;20053;-69
2024/03/20 20:43:46;;;;;;;1999.90;999.90;;;;;;;12.06;100.00;101819.25;10374218;28;20405;-68
2024/03/20 20:48:47;;;;;;;1999.90;999.90;;;;;;;11.89;100.00;101819.16;10383045;28;20045;-68
2024/03/20 20:53:49;;;;;;;1999.90;999.90;;;;;;;11.73;100.00;101826.88;10339296;28;20042;-69
2024/03/20 20:58:51;;;;;;;1999.90;999.90;;;;;;;11.58;100.00;101832.81;10369132;28;20045;-69
2024/03/20 21:19:53;;;;;;;1999.90;999.90;;;;;;;11.31;100.00;101830.50;10368295;28;20099;-69
2024/03/20 21:24:56;;;;;;;1999.90;999.90;;;;;;;11.31;100.00;101838.38;10319597;28;20499;-69
2024/03/20 21:29:57;;;;;;;1999.90;999.90;;;;;;;11.22;100.00;101836.16;10318975;28;20054;-69
2024/03/20 21:34:58;;;;;;;1999.90;999.90;;;;;;;11.21;100.00;101842.31;10350652;28;20068;-69
2024/03/20 21:40:00;;;;;;;1999.90;999.90;;;;;;;11.20;100.00;101853.72;10335402;28;20050;-69
2024/03/20 21:45:02;;;;;;;1999.90;999.90;;;;;;;11.02;100.00;101857.97;10342536;28;20057;-69
2024/03/20 21:50:05;;;;;;;1999.90;999.90;;;;;;;10.95;100.00;101858.22;10347702;28;20058;-69
2024/03/20 21:55:06;;;;;;;1999.90;999.90;;;;;;;10.96;100.00;101851.22;10334723;28;20057;-69
2024/03/20 22:00:08;;;;;;;1999.90;999.90;;;;;;;11.05;100.00;101856.09;10320652;28;20116;-69
2024/03/20 22:05:10;;;;;;;1999.90;999.90;;;;;;;11.05;100.00;101855.25;10329732;28;20050;-69
2024/03/20 22:10:15;;;;;;;1999.90;999.90;;;;;;;11.06;100.00;101851.69;10321217;28;20054;-70